< < Back
Terminal Aerodrome Forecast


Current Version              Previous Versions:   1  2  3  4  5  6  7  8  9  

Terminal Aerodrome Forecast

962
FTUS44 KMOB 222200 AAA
TAFPNS
TAF AMD
KPNS 222228Z 2222/2318 06005KT P6SM SCT003 BKN009
      TEMPO 2223/2303 6SM -RA OVC003
     FM230600 07013G17KT 4SM -SHRA BR OVC007
     FM230800 15015G25KT 3SM TSRA OVC004CB=

Latest METAR

779
SAUS70 KWBC 231400 RRD
MTRPNS
METAR KPNS 231353Z 15014KT 3SM BR BKN004 BKN011 OVC049 21/21 A2979 RMK
AO2 RAE02B26E44 SLP089 P0001 T02060206


USA.gov is the U.S. government's official web portal to all federal, state and local government web resources and services.